Riceton, Canada
Current Conditions -  °F | °C
As of 10:00 AM on Monday 26 Jan 2015 (Local Time) from CYQR Reporting Station
Broken Clouds Broken Clouds  
Wind Chill: 30°   Ceiling: 26000
Heat Index: 34°   Visibility: 15mi
Dew Point: 30°   Wind: 5mph
Humidity: 87%   Direction: 290°WNW
Pressure: 29.91"   Gusts: NA
Location:  50.1°N, 104.32°W
Report Text: CYQR 261600Z 29004KT 15SM FEW095 BKN260 01/M01 A2991 RMK AC1CI5 SLP153
Loading
Personal Weather Stations






























Interactive Weather Map New forecast layout! Learn more

10-Day Weather Forecast

Advertisements
Track Severe Weather on mobile